Terminal Aerodrome Forecast
Issued by NWS Rapid City, SD

Home | Current Version | Previous Version | Graphics & Text | Print | Product List | Glossary On
Versions: 1 2 3 4 5 6 7 8 9 10 11 12 13 14 15 16 17 18 19 20 21
000
FTUS43 KUNR 310500
TAFRAP
TAF
KRAP 310524Z 3106/0106 01008KT P6SM BKN200
     FM311200 05006KT P6SM OVC008
     FM311700 11009KT P6SM OVC025
     FM010000 02012KT 1SM -SN VV007=

USA.gov is the U.S. government's official web portal to all federal, state and local government web resources and services.